Time;durP1;ratioP1;P1;durP2;ratioP2;P2;SDS_P1;SDS_P2;PMS_P1;PMS_P2;Temp;Humidity;BMP_temperature;BMP_pressure;BME280_temperature;BME280_humidity;BME280_pressure;Samples;Min_cycle;Max_cycle;Signal;HPM_P1;HPM_P2
2022/07/26 00:00:15;;;;;;;6.65;2.92;;;19.90;73.40;;;;;;4218708;28;20429;-65
2022/07/26 00:02:16;;;;;;;4.20;2.75;;;19.80;73.40;;;;;;4226271;28;20453;-65
2022/07/26 00:04:17;;;;;;;6.65;2.63;;;19.80;73.40;;;;;;4227454;28;20028;-65
2022/07/26 00:06:18;;;;;;;7.72;3.00;;;19.80;73.40;;;;;;4226031;28;20414;-65
2022/07/26 00:08:20;;;;;;;6.32;2.58;;;19.70;73.50;;;;;;4227480;28;20051;-64
2022/07/26 00:10:21;;;;;;;5.15;2.78;;;19.60;73.70;;;;;;4215411;28;20044;-65
2022/07/26 00:12:22;;;;;;;5.35;2.63;;;19.60;74.00;;;;;;4210921;28;20040;-65
2022/07/26 00:14:23;;;;;;;3.88;2.40;;;19.50;74.10;;;;;;4210155;28;20049;-64
2022/07/26 00:16:24;;;;;;;5.35;2.53;;;19.50;74.90;;;;;;4210767;28;20422;-65
2022/07/26 00:18:26;;;;;;;4.65;2.47;;;19.40;74.40;;;;;;4209074;28;20032;-66
2022/07/26 00:20:28;;;;;;;4.70;2.90;;;19.40;74.80;;;;;;4211088;28;20504;-65
2022/07/26 00:22:35;;;;;;;7.05;3.00;;;19.40;74.80;;;;;;4209206;28;20537;-64
2022/07/26 00:24:36;;;;;;;7.93;2.45;;;19.30;74.80;;;;;;4210617;28;20032;-66
2022/07/26 00:26:37;;;;;;;9.52;3.47;;;19.40;74.80;;;;;;4209254;28;20036;-66
2022/07/26 00:28:40;;;;;;;4.47;2.75;;;19.30;74.80;;;;;;4210045;28;20093;-64
2022/07/26 00:30:41;;;;;;;5.78;2.55;;;19.40;74.70;;;;;;4193038;28;20029;-66
2022/07/26 00:32:43;;;;;;;4.38;2.80;;;19.40;74.60;;;;;;4203995;28;20081;-65
2022/07/26 00:34:44;;;;;;;5.57;2.85;;;19.30;74.60;;;;;;4226652;28;20096;-65
2022/07/26 00:36:45;;;;;;;7.72;3.08;;;19.30;74.70;;;;;;4225789;28;20560;-68
2022/07/26 00:38:46;;;;;;;7.65;2.47;;;19.30;74.70;;;;;;4225359;28;20031;-66
2022/07/26 00:40:48;;;;;;;4.38;2.28;;;19.30;74.70;;;;;;4225230;28;20031;-66
2022/07/26 00:42:49;;;;;;;5.88;2.90;;;19.30;74.80;;;;;;4227445;28;20085;-65
2022/07/26 00:44:50;;;;;;;3.75;2.47;;;19.30;74.70;;;;;;4225809;28;20104;-66
2022/07/26 00:46:51;;;;;;;4.57;2.70;;;19.30;74.70;;;;;;4227318;28;20081;-65
2022/07/26 00:48:53;;;;;;;4.63;2.38;;;19.20;74.70;;;;;;4225643;28;20093;-65
2022/07/26 00:50:54;;;;;;;4.55;3.13;;;19.20;74.80;;;;;;4227786;28;20089;-65
2022/07/26 00:52:55;;;;;;;5.75;2.58;;;19.20;74.90;;;;;;4225701;28;20104;-66
2022/07/26 00:54:57;;;;;;;6.80;2.67;;;19.20;74.90;;;;;;4225575;28;20027;-66
2022/07/26 00:56:58;;;;;;;4.53;2.60;;;19.10;74.90;;;;;;4225740;28;20077;-66
2022/07/26 00:59:00;;;;;;;8.05;2.78;;;19.10;75.20;;;;;;4226863;28;20024;-66
2022/07/26 01:01:01;;;;;;;3.97;2.42;;;19.00;75.40;;;;;;4224769;28;20061;-66
2022/07/26 01:03:03;;;;;;;4.55;3.17;;;19.00;75.50;;;;;;4226366;28;20475;-66
2022/07/26 01:05:05;;;;;;;4.80;2.15;;;19.00;75.90;;;;;;4225803;28;20296;-65
2022/07/26 01:07:06;;;;;;;2.30;2.10;;;18.90;76.20;;;;;;4225107;28;20084;-66
2022/07/26 01:09:08;;;;;;;3.05;2.13;;;18.80;76.70;;;;;;4226880;28;20043;-66
2022/07/26 01:11:09;;;;;;;4.07;2.25;;;18.80;77.10;;;;;;4226754;28;20092;-67
2022/07/26 01:13:11;;;;;;;4.85;2.17;;;18.70;77.40;;;;;;4230318;28;20461;-67
2022/07/26 01:15:13;;;;;;;3.88;2.10;;;18.60;78.40;;;;;;4228651;28;20459;-67
2022/07/26 01:17:14;;;;;;;2.83;2.00;;;18.50;77.90;;;;;;4230122;28;20476;-65
2022/07/26 01:19:15;;;;;;;3.30;2.28;;;18.50;78.30;;;;;;4228368;28;20019;-67
2022/07/26 01:21:17;;;;;;;5.25;2.22;;;18.50;79.10;;;;;;4221285;28;20040;-66
2022/07/26 01:23:18;;;;;;;7.93;2.10;;;18.50;78.60;;;;;;4211225;28;20025;-66
2022/07/26 01:25:30;;;;;;;4.18;2.40;;;18.50;78.70;;;;;;4213143;28;20032;-67
2022/07/26 01:27:37;;;;;;;3.42;2.10;;;18.50;79.20;;;;;;4211505;28;20024;-68
2022/07/26 01:29:39;;;;;;;7.15;2.55;;;18.40;79.00;;;;;;4215665;28;20062;-67
2022/07/26 01:31:40;;;;;;;6.28;2.45;;;18.30;79.30;;;;;;4214872;28;20052;-66
2022/07/26 01:33:41;;;;;;;5.78;2.20;;;18.30;79.60;;;;;;4212624;28;20036;-66
2022/07/26 01:35:42;;;;;;;3.92;2.08;;;18.20;80.00;;;;;;4211275;28;20024;-67
2022/07/26 01:37:44;;;;;;;6.10;2.10;;;18.20;80.30;;;;;;4212185;28;20419;-66
2022/07/26 01:39:45;;;;;;;11.73;2.80;;;18.00;80.90;;;;;;4218786;28;20084;-65
2022/07/26 01:41:46;;;;;;;6.05;2.53;;;17.90;81.40;;;;;;4211486;28;20090;-66
2022/07/26 01:43:47;;;;;;;5.28;2.38;;;17.80;81.90;;;;;;4212780;28;20512;-65
2022/07/26 01:45:48;;;;;;;7.03;2.72;;;17.70;82.40;;;;;;4211113;28;20085;-64
2022/07/26 01:47:49;;;;;;;4.68;2.50;;;17.60;82.60;;;;;;4212938;28;20040;-66
2022/07/26 01:49:51;;;;;;;4.05;3.10;;;17.60;82.60;;;;;;4217759;28;20425;-65
2022/07/26 01:51:52;;;;;;;6.30;2.38;;;17.60;82.80;;;;;;4229614;28;20088;-65
2022/07/26 01:53:53;;;;;;;3.20;2.08;;;17.60;82.90;;;;;;4227692;28;20090;-66
2022/07/26 01:55:54;;;;;;;3.75;2.45;;;17.60;83.20;;;;;;4229564;28;20473;-65
2022/07/26 01:57:55;;;;;;;4.18;2.20;;;17.50;83.20;;;;;;4227875;28;20027;-66
2022/07/26 01:59:56;;;;;;;4.50;2.30;;;17.60;83.40;;;;;;4229813;28;20373;-65
2022/07/26 02:01:57;;;;;;;4.40;2.33;;;17.60;83.70;;;;;;4227892;28;20442;-65
2022/07/26 02:03:59;;;;;;;9.13;2.45;;;17.50;84.00;;;;;;4227276;28;20020;-66
2022/07/26 02:06:00;;;;;;;4.55;2.30;;;17.40;84.30;;;;;;4211000;28;20069;-66
2022/07/26 02:08:02;;;;;;;7.57;2.47;;;17.40;84.70;;;;;;4211295;28;20052;-65
2022/07/26 02:10:04;;;;;;;3.65;2.05;;;17.30;84.80;;;;;;4211857;28;20105;-67
2022/07/26 02:12:06;;;;;;;4.30;3.20;;;17.20;85.20;;;;;;4213340;28;20047;-67
2022/07/26 02:14:07;;;;;;;4.97;2.75;;;17.20;85.60;;;;;;4228434;28;20031;-65
2022/07/26 02:16:12;;;;;;;11.93;3.08;;;17.10;85.90;;;;;;4227444;28;20057;-66
2022/07/26 02:18:13;;;;;;;5.03;2.75;;;17.10;86.30;;;;;;4229065;28;20027;-66
2022/07/26 02:20:15;;;;;;;5.65;3.00;;;17.00;86.70;;;;;;4225807;28;20032;-66
2022/07/26 02:22:18;;;;;;;5.25;2.55;;;17.00;87.20;;;;;;4212681;28;20125;-65
2022/07/26 02:24:20;;;;;;;5.60;2.55;;;16.90;87.40;;;;;;4210628;28;20028;-65
2022/07/26 02:26:21;;;;;;;5.53;2.30;;;16.90;87.50;;;;;;4212299;28;20496;-65
2022/07/26 02:28:23;;;;;;;5.38;2.85;;;16.90;87.30;;;;;;4210435;28;20101;-65
2022/07/26 02:30:24;;;;;;;5.30;2.10;;;17.00;87.30;;;;;;4212560;28;20028;-65
2022/07/26 02:32:25;;;;;;;5.30;2.58;;;17.00;87.30;;;;;;4210559;28;20549;-65
2022/07/26 02:34:26;;;;;;;5.18;2.20;;;17.00;87.20;;;;;;4218084;28;20556;-64
2022/07/26 02:36:28;;;;;;;4.18;1.90;;;17.10;87.30;;;;;;4227388;28;20081;-65
2022/07/26 02:38:29;;;;;;;10.65;2.42;;;17.10;87.40;;;;;;4228189;28;20077;-65
2022/07/26 02:40:31;;;;;;;5.40;2.20;;;17.10;87.50;;;;;;4214562;28;20028;-66
2022/07/26 02:42:32;;;;;;;7.10;2.10;;;17.20;87.40;;;;;;4211282;28;20040;-68
2022/07/26 02:44:34;;;;;;;4.13;2.45;;;17.20;87.50;;;;;;4211491;28;20397;-67
2022/07/26 02:46:36;;;;;;;4.63;2.33;;;17.20;87.50;;;;;;4210300;28;20101;-64
2022/07/26 02:48:37;;;;;;;6.32;2.30;;;17.10;87.90;;;;;;4227290;28;20059;-66
2022/07/26 02:50:38;;;;;;;7.18;3.15;;;17.00;88.40;;;;;;4226669;28;20438;-68
2022/07/26 02:52:39;;;;;;;6.45;2.80;;;16.80;89.00;;;;;;4228471;28;20059;-67
2022/07/26 02:54:40;;;;;;;6.10;2.63;;;16.80;89.30;;;;;;4226932;28;20032;-65
2022/07/26 02:56:42;;;;;;;3.08;2.33;;;16.70;89.50;;;;;;4228523;28;20028;-66
2022/07/26 02:58:43;;;;;;;5.65;2.63;;;16.70;89.70;;;;;;4226778;28;20365;-65
2022/07/26 03:00:44;;;;;;;7.95;3.17;;;16.70;89.70;;;;;;4222583;28;20491;-65
2022/07/26 03:02:47;;;;;;;3.70;2.80;;;16.80;89.70;;;;;;4209819;28;20035;-66
2022/07/26 03:04:49;;;;;;;2.47;2.25;;;16.80;89.90;;;;;;4212086;28;20453;-66
2022/07/26 03:06:50;;;;;;;5.35;3.00;;;17.00;89.60;;;;;;4210929;28;20012;-66
2022/07/26 03:08:51;;;;;;;6.95;3.30;;;17.10;89.30;;;;;;4227752;28;20491;-66
2022/07/26 03:10:52;;;;;;;4.32;2.55;;;17.20;89.10;;;;;;4227302;28;20031;-65
2022/07/26 03:12:54;;;;;;;8.10;2.78;;;17.30;88.70;;;;;;4227526;28;20464;-65
2022/07/26 03:14:55;;;;;;;8.30;3.28;;;17.40;88.60;;;;;;4215172;28;20024;-65
2022/07/26 03:16:56;;;;;;;3.30;2.53;;;17.50;88.40;;;;;;4210205;28;20093;-65
2022/07/26 03:18:58;;;;;;;4.55;2.30;;;17.60;88.50;;;;;;4210890;28;20094;-65
2022/07/26 03:20:59;;;;;;;6.47;2.58;;;17.80;88.20;;;;;;4209471;28;20085;-65
2022/07/26 03:23:01;;;;;;;6.40;2.45;;;18.00;87.50;;;;;;4211446;28;20478;-64
2022/07/26 03:25:02;;;;;;;4.53;2.60;;;18.20;87.10;;;;;;4209618;28;20054;-67
2022/07/26 03:27:03;;;;;;;6.13;2.97;;;18.40;86.80;;;;;;4212845;28;20036;-65
2022/07/26 03:29:05;;;;;;;4.30;2.80;;;18.60;86.40;;;;;;4210160;28;20081;-66
2022/07/26 03:31:06;;;;;;;8.10;3.05;;;19.00;85.50;;;;;;4214298;28;20028;-66
2022/07/26 03:33:07;;;;;;;11.00;2.88;;;19.40;84.80;;;;;;4208837;28;20028;-65
2022/07/26 03:35:08;;;;;;;6.05;2.97;;;19.70;83.50;;;;;;4210941;28;20487;-66
2022/07/26 03:37:09;;;;;;;3.70;2.85;;;20.00;82.70;;;;;;4209344;28;20073;-65
2022/07/26 03:39:10;;;;;;;7.78;2.50;;;20.30;81.80;;;;;;4210822;28;20093;-65
2022/07/26 03:41:12;;;;;;;6.75;2.95;;;20.40;81.30;;;;;;4210027;28;20028;-67
2022/07/26 03:43:13;;;;;;;9.43;2.47;;;20.70;80.70;;;;;;4210332;28;20028;-67
2022/07/26 03:45:14;;;;;;;6.72;2.20;;;20.90;80.10;;;;;;4210412;28;20094;-66
2022/07/26 03:47:16;;;;;;;7.13;2.80;;;21.00;79.40;;;;;;4210016;28;20048;-67
2022/07/26 03:49:17;;;;;;;9.02;2.92;;;21.10;79.20;;;;;;4210290;28;20052;-64
2022/07/26 03:51:18;;;;;;;6.45;2.72;;;21.20;79.00;;;;;;4209336;28;20040;-65
2022/07/26 03:53:19;;;;;;;7.70;2.70;;;21.40;78.70;;;;;;4210667;28;20028;-64
2022/07/26 03:57:40;;;;;;;8.63;2.97;;;22.10;77.00;;;;;;4210567;28;20077;-64
2022/07/26 03:59:41;;;;;;;10.93;2.78;;;22.50;76.70;;;;;;4209242;28;20029;-65
2022/07/26 04:01:43;;;;;;;9.52;3.35;;;22.70;75.90;;;;;;4210567;28;20040;-65
2022/07/26 04:03:44;;;;;;;14.18;3.63;;;23.00;75.50;;;;;;4209244;28;20061;-66
2022/07/26 04:05:46;;;;;;;17.10;4.53;;;23.30;74.80;;;;;;4210497;28;20425;-67
2022/07/26 04:07:47;;;;;;;11.20;4.53;;;23.70;74.20;;;;;;4208699;28;20073;-66
2022/07/26 04:09:48;;;;;;;19.75;6.07;;;24.20;73.00;;;;;;4210425;28;20044;-65
2022/07/26 04:11:49;;;;;;;23.77;7.50;;;24.70;72.20;;;;;;4208941;28;20032;-65
2022/07/26 04:13:50;;;;;;;22.92;7.63;;;24.80;71.50;;;;;;4210648;28;20089;-66
2022/07/26 04:15:51;;;;;;;17.75;6.72;;;25.00;71.10;;;;;;4209665;28;20065;-65
2022/07/26 04:17:53;;;;;;;17.10;7.45;;;25.30;70.70;;;;;;4209958;28;20054;-67
2022/07/26 04:19:54;;;;;;;24.42;8.43;;;25.20;70.50;;;;;;4209313;28;20477;-66
2022/07/26 04:21:55;;;;;;;15.70;5.82;;;25.00;70.70;;;;;;4209305;28;20024;-65
2022/07/26 04:23:56;;;;;;;19.05;5.93;;;25.40;70.50;;;;;;4209891;28;20036;-64
2022/07/26 04:25:57;;;;;;;16.90;5.80;;;25.90;70.00;;;;;;4208943;28;20075;-65
2022/07/26 04:27:58;;;;;;;11.27;4.78;;;26.40;69.20;;;;;;4209937;28;20426;-66
2022/07/26 04:30:00;;;;;;;12.90;4.65;;;26.70;68.40;;;;;;4208616;28;20059;-66
2022/07/26 04:32:01;;;;;;;15.23;5.35;;;26.80;67.90;;;;;;4209848;28;20414;-64
2022/07/26 04:34:02;;;;;;;16.70;3.78;;;27.10;67.60;;;;;;4207658;28;20028;-64
2022/07/26 04:36:04;;;;;;;20.35;4.80;;;27.10;67.20;;;;;;4213207;28;20134;-64
2022/07/26 04:38:05;;;;;;;15.02;3.42;;;27.30;67.20;;;;;;4216769;28;20124;-66
2022/07/26 04:40:07;;;;;;;9.93;4.03;;;27.80;66.50;;;;;;4214334;28;20152;-68
2022/07/26 04:42:09;;;;;;;16.48;3.92;;;28.30;65.90;;;;;;4209580;28;20086;-66
2022/07/26 04:44:10;;;;;;;15.98;4.00;;;28.30;65.30;;;;;;4210241;28;20365;-65
2022/07/26 04:46:11;;;;;;;18.63;4.18;;;28.10;66.10;;;;;;4210713;28;20489;-66
2022/07/26 04:48:13;;;;;;;25.77;4.60;;;27.60;65.50;;;;;;4212499;28;20032;-66
2022/07/26 04:50:15;;;;;;;13.43;3.85;;;27.40;65.80;;;;;;4212458;28;20055;-65
2022/07/26 04:52:16;;;;;;;11.07;3.33;;;27.50;66.50;;;;;;4213013;28;20028;-67
2022/07/26 04:54:21;;;;;;;13.75;4.07;;;27.90;65.40;;;;;;4212950;28;20394;-67
2022/07/26 04:56:22;;;;;;;11.05;3.13;;;28.00;64.90;;;;;;4212433;28;20117;-67
2022/07/26 04:58:24;;;;;;;17.77;5.15;;;28.20;64.70;;;;;;4212969;28;20062;-65
2022/07/26 05:00:25;;;;;;;15.52;3.67;;;28.40;64.00;;;;;;4211444;28;20488;-65
2022/07/26 05:02:27;;;;;;;13.70;3.03;;;28.40;63.80;;;;;;4213035;28;20156;-66
2022/07/26 05:04:28;;;;;;;14.85;3.53;;;28.80;64.10;;;;;;4212034;28;20450;-65
2022/07/26 05:06:31;;;;;;;9.95;2.78;;;29.30;62.70;;;;;;4212608;28;20036;-63
2022/07/26 05:08:32;;;;;;;29.77;4.90;;;29.70;61.50;;;;;;4214124;28;20485;-66
2022/07/26 05:10:35;;;;;;;22.63;5.80;;;29.50;61.60;;;;;;4220118;28;20048;-65
2022/07/26 05:12:37;;;;;;;32.58;6.35;;;29.10;62.10;;;;;;4227716;28;20445;-65
2022/07/26 05:14:38;;;;;;;25.63;4.93;;;28.80;62.60;;;;;;4229892;28;20020;-67
2022/07/26 05:16:39;;;;;;;16.98;4.72;;;28.50;62.70;;;;;;4227897;28;20031;-65
2022/07/26 05:18:41;;;;;;;33.45;6.07;;;28.10;63.00;;;;;;4228201;28;20065;-65
2022/07/26 05:20:42;;;;;;;16.20;4.25;;;28.30;63.00;;;;;;4227985;28;20028;-65
2022/07/26 05:22:43;;;;;;;15.73;4.97;;;28.20;63.00;;;;;;4229084;28;20047;-65
2022/07/26 05:24:45;;;;;;;23.25;4.80;;;28.30;62.90;;;;;;4228572;28;20089;-65
2022/07/26 05:26:46;;;;;;;20.30;4.47;;;28.20;62.80;;;;;;4228133;28;20047;-66
2022/07/26 05:28:47;;;;;;;19.80;4.75;;;27.90;62.80;;;;;;4228835;28;20203;-65
2022/07/26 05:30:48;;;;;;;18.58;4.45;;;27.80;62.90;;;;;;4228054;28;20036;-65
2022/07/26 05:32:50;;;;;;;19.92;4.72;;;27.90;62.70;;;;;;4229113;28;20036;-65
2022/07/26 05:34:51;;;;;;;17.17;4.45;;;27.60;62.60;;;;;;4227870;28;20031;-65
2022/07/26 05:36:52;;;;;;;16.85;3.90;;;27.60;63.00;;;;;;4229781;27;20032;-64
2022/07/26 05:38:53;;;;;;;22.17;3.88;;;27.70;62.60;;;;;;4227792;28;20040;-65
2022/07/26 05:40:54;;;;;;;14.73;4.07;;;27.90;62.50;;;;;;4229347;28;20032;-65
2022/07/26 05:42:56;;;;;;;18.48;4.07;;;27.90;62.30;;;;;;4227837;28;20032;-64
2022/07/26 05:44:57;;;;;;;14.27;4.20;;;27.90;62.40;;;;;;4229259;28;20031;-69
2022/07/26 05:46:58;;;;;;;20.20;4.35;;;27.50;62.80;;;;;;4227716;28;20086;-65
2022/07/26 05:48:59;;;;;;;16.80;4.07;;;27.10;63.30;;;;;;4229240;28;20043;-67
2022/07/26 05:51:01;;;;;;;13.75;3.60;;;27.00;63.70;;;;;;4227614;28;20085;-68
2022/07/26 05:53:02;;;;;;;18.17;4.10;;;27.10;63.60;;;;;;4228781;28;20028;-66
2022/07/26 05:55:03;;;;;;;26.60;4.57;;;27.30;63.40;;;;;;4228037;28;20176;-66
2022/07/26 05:57:04;;;;;;;12.95;3.83;;;27.00;63.20;;;;;;4227848;28;20028;-66
2022/07/26 05:59:06;;;;;;;15.45;4.35;;;27.50;63.10;;;;;;4228415;28;20092;-68
2022/07/26 06:01:07;;;;;;;13.60;3.78;;;27.90;62.60;;;;;;4226307;28;20396;-65
2022/07/26 06:03:24;;;;;;;17.77;4.10;;;27.80;62.30;;;;;;4228772;28;20039;-66
2022/07/26 06:05:25;;;;;;;20.25;4.22;;;27.70;62.50;;;;;;4227470;28;20103;-67
2022/07/26 06:07:26;;;;;;;16.27;4.35;;;27.40;62.70;;;;;;4229194;28;20068;-68
2022/07/26 06:09:27;;;;;;;14.95;3.85;;;27.40;62.70;;;;;;4227167;28;20040;-67
2022/07/26 06:11:29;;;;;;;14.13;3.97;;;27.50;62.50;;;;;;4228705;28;20073;-66
2022/07/26 06:13:30;;;;;;;19.33;5.47;;;27.50;62.40;;;;;;4225912;28;20047;-66
2022/07/26 06:15:31;;;;;;;23.80;4.78;;;27.40;62.40;;;;;;4228795;28;20089;-66
2022/07/26 06:17:32;;;;;;;18.88;4.82;;;27.40;62.30;;;;;;4226822;28;20031;-65
2022/07/26 06:19:34;;;;;;;13.32;4.25;;;27.10;62.80;;;;;;4227970;27;20556;-66
2022/07/26 06:21:35;;;;;;;15.63;4.70;;;27.00;62.80;;;;;;4226723;28;20093;-65
2022/07/26 06:23:36;;;;;;;18.77;4.72;;;26.80;62.90;;;;;;4228361;28;20048;-66
2022/07/26 06:25:38;;;;;;;26.25;4.60;;;26.80;63.10;;;;;;4226633;28;20016;-65
2022/07/26 06:27:39;;;;;;;16.15;4.25;;;26.90;62.80;;;;;;4227845;28;20036;-68
2022/07/26 06:29:40;;;;;;;22.48;4.60;;;26.90;62.90;;;;;;4227028;28;20031;-66
2022/07/26 06:31:41;;;;;;;20.42;3.85;;;26.70;63.00;;;;;;4227377;28;20467;-66
2022/07/26 06:33:42;;;;;;;16.10;5.82;;;26.60;63.20;;;;;;4227734;28;20096;-65
2022/07/26 06:35:43;;;;;;;11.13;3.67;;;26.60;63.20;;;;;;4226664;28;20031;-66
2022/07/26 06:37:45;;;;;;;8.27;3.20;;;26.30;63.40;;;;;;4228544;28;20043;-66
2022/07/26 06:39:46;;;;;;;8.40;2.83;;;26.30;63.60;;;;;;4226773;28;20084;-67
2022/07/26 06:41:47;;;;;;;13.05;3.35;;;26.20;63.70;;;;;;4226832;28;20062;-65
2022/07/26 06:43:48;;;;;;;9.20;2.70;;;26.30;63.80;;;;;;4226761;28;20081;-65
2022/07/26 06:45:49;;;;;;;10.77;3.05;;;26.10;63.80;;;;;;4228167;28;20027;-65
2022/07/26 06:47:51;;;;;;;11.35;2.83;;;26.10;63.70;;;;;;4226613;28;20040;-65
2022/07/26 06:49:52;;;;;;;8.57;2.80;;;26.60;63.50;;;;;;4227946;28;20085;-66
2022/07/26 06:51:56;;;;;;;12.88;3.08;;;27.40;62.70;;;;;;4226556;28;20044;-65
2022/07/26 06:53:57;;;;;;;18.52;4.22;;;27.30;62.20;;;;;;4227909;28;20044;-68
2022/07/26 06:55:58;;;;;;;14.43;2.53;;;27.00;62.50;;;;;;4226384;28;20024;-66
2022/07/26 06:57:59;;;;;;;14.65;3.53;;;26.80;62.70;;;;;;4227752;28;20357;-65
2022/07/26 07:00:06;;;;;;;5.35;2.15;;;26.60;63.10;;;;;;4226674;28;20108;-68
2022/07/26 07:02:07;;;;;;;6.32;2.72;;;26.90;62.40;;;;;;4227104;28;20024;-64
2022/07/26 07:04:08;;;;;;;6.00;2.50;;;26.90;62.10;;;;;;4226841;28;20036;-68
2022/07/26 07:06:10;;;;;;;7.57;2.08;;;26.70;62.20;;;;;;4226786;28;20051;-67
2022/07/26 07:08:11;;;;;;;8.10;2.42;;;26.60;62.00;;;;;;4226620;28;20492;-64
2022/07/26 07:10:12;;;;;;;8.38;2.25;;;26.60;61.60;;;;;;4225565;28;20472;-66
2022/07/26 07:12:14;;;;;;;8.40;2.17;;;26.40;62.00;;;;;;4227460;28;20036;-65
2022/07/26 07:14:15;;;;;;;6.50;3.40;;;26.40;62.30;;;;;;4225794;28;20099;-65
2022/07/26 07:16:16;;;;;;;4.57;2.30;;;26.70;61.90;;;;;;4227464;28;20100;-64
2022/07/26 07:18:17;;;;;;;7.10;2.35;;;26.70;61.90;;;;;;4226002;28;20080;-66
2022/07/26 07:20:18;;;;;;;4.47;2.03;;;26.40;61.80;;;;;;4227053;28;20044;-64
2022/07/26 07:22:19;;;;;;;2.17;1.85;;;26.10;61.90;;;;;;4225893;28;20031;-65
2022/07/26 07:24:22;;;;;;;3.88;2.10;;;26.20;62.10;;;;;;4227686;28;20039;-65
2022/07/26 07:26:24;;;;;;;10.38;2.72;;;26.20;62.20;;;;;;4225908;28;20093;-65
2022/07/26 07:28:25;;;;;;;9.85;2.40;;;26.30;62.30;;;;;;4227545;28;20024;-65
2022/07/26 07:30:26;;;;;;;4.57;2.20;;;26.40;62.30;;;;;;4226068;28;20580;-64
2022/07/26 07:32:27;;;;;;;6.32;2.30;;;26.70;62.40;;;;;;4226916;28;20441;-64
2022/07/26 07:34:28;;;;;;;4.07;2.03;;;26.70;62.40;;;;;;4226414;28;20028;-64
2022/07/26 07:36:30;;;;;;;10.18;3.17;;;26.80;62.50;;;;;;4226520;28;20044;-64
2022/07/26 07:38:31;;;;;;;4.47;2.10;;;26.90;62.10;;;;;;4226963;28;20043;-64
2022/07/26 07:40:32;;;;;;;6.72;2.30;;;26.90;61.90;;;;;;4225812;28;20088;-64
2022/07/26 07:42:34;;;;;;;7.93;2.05;;;27.30;61.80;;;;;;4227396;28;20015;-64
2022/07/26 07:44:35;;;;;;;6.63;2.03;;;27.30;61.20;;;;;;4225687;28;20477;-64
2022/07/26 07:46:36;;;;;;;8.00;1.92;;;27.40;60.70;;;;;;4227115;28;20073;-64
2022/07/26 07:48:39;;;;;;;2.30;1.95;;;27.40;60.70;;;;;;4225804;28;20023;-65
2022/07/26 07:50:41;;;;;;;3.38;1.88;;;27.40;60.50;;;;;;4226982;28;20115;-64
2022/07/26 07:52:42;;;;;;;4.05;2.20;;;27.60;60.60;;;;;;4225919;28;20027;-64
2022/07/26 07:54:43;;;;;;;7.45;2.13;;;27.90;60.70;;;;;;4227437;28;20032;-64
2022/07/26 07:56:44;;;;;;;3.47;1.88;;;28.20;60.50;;;;;;4225820;28;20467;-65
2022/07/26 07:58:45;;;;;;;3.95;2.10;;;28.40;59.60;;;;;;4227269;28;20491;-66
2022/07/26 08:00:46;;;;;;;4.53;1.27;;;28.60;59.60;;;;;;4225704;28;20528;-65
2022/07/26 08:02:47;;;;;;;5.88;2.70;;;28.60;59.00;;;;;;4226961;28;20176;-67
2022/07/26 08:04:49;;;;;;;4.03;1.90;;;28.50;59.10;;;;;;4226283;28;20033;-65
2022/07/26 08:06:51;;;;;;;7.88;1.80;;;28.50;59.50;;;;;;4226797;28;20020;-65
2022/07/26 08:08:52;;;;;;;5.22;1.90;;;28.40;59.50;;;;;;4226402;28;20044;-67
2022/07/26 08:10:53;;;;;;;6.82;2.75;;;28.20;59.70;;;;;;4225637;28;20484;-66
2022/07/26 08:12:54;;;;;;;3.17;2.28;;;28.30;59.80;;;;;;4227230;28;20093;-65
2022/07/26 08:14:56;;;;;;;3.67;2.00;;;28.40;59.60;;;;;;4224757;28;20035;-66
2022/07/26 08:16:57;;;;;;;6.25;1.77;;;28.80;59.50;;;;;;4227016;28;20103;-64
2022/07/26 08:18:58;;;;;;;3.88;2.05;;;28.70;59.10;;;;;;4225746;28;20031;-65
2022/07/26 08:20:59;;;;;;;4.68;1.77;;;28.70;59.20;;;;;;4228162;28;20040;-66
2022/07/26 08:23:00;;;;;;;5.20;2.15;;;28.60;59.30;;;;;;4229052;28;20380;-65
2022/07/26 08:25:02;;;;;;;5.95;2.63;;;28.70;59.60;;;;;;4229029;28;20484;-65
2022/07/26 08:27:03;;;;;;;10.05;2.28;;;28.70;59.60;;;;;;4229097;27;20483;-65
2022/07/26 08:29:04;;;;;;;6.15;2.25;;;28.80;59.50;;;;;;4230371;28;20035;-65
2022/07/26 08:31:05;;;;;;;3.13;2.35;;;29.20;59.40;;;;;;4228838;28;20084;-65
2022/07/26 08:33:07;;;;;;;4.80;2.33;;;29.20;58.60;;;;;;4229991;28;20475;-65
2022/07/26 08:35:08;;;;;;;4.25;2.28;;;29.40;58.90;;;;;;4229057;28;20027;-65
2022/07/26 08:37:09;;;;;;;7.60;2.15;;;29.40;58.50;;;;;;4229782;28;20081;-66
2022/07/26 08:39:10;;;;;;;2.30;1.92;;;29.50;58.20;;;;;;4229694;28;20044;-66
2022/07/26 08:41:12;;;;;;;3.20;2.05;;;29.30;58.00;;;;;;4228917;28;20048;-65
2022/07/26 08:43:13;;;;;;;5.55;2.55;;;29.40;57.90;;;;;;4230038;28;20088;-68
2022/07/26 08:45:20;;;;;;;3.53;2.20;;;29.70;57.90;;;;;;4228749;28;20487;-67
2022/07/26 08:47:22;;;;;;;6.13;2.75;;;29.90;57.70;;;;;;4230212;28;20024;-66
2022/07/26 08:49:23;;;;;;;7.72;2.00;;;30.20;57.70;;;;;;4224124;28;20081;-67
2022/07/26 08:51:25;;;;;;;2.67;2.30;;;30.20;57.30;;;;;;4196631;28;20090;-66
2022/07/26 08:53:28;;;;;;;4.65;3.05;;;30.10;56.80;;;;;;4195045;28;20366;-69
2022/07/26 08:55:30;;;;;;;8.88;2.20;;;30.00;56.70;;;;;;4196518;28;20063;-68
2022/07/26 08:57:31;;;;;;;5.78;1.65;;;30.00;56.70;;;;;;4194884;28;20040;-66
2022/07/26 08:59:32;;;;;;;4.85;1.63;;;29.90;56.60;;;;;;4196536;28;20082;-69
2022/07/26 09:01:33;;;;;;;5.05;2.33;;;30.10;56.50;;;;;;4194613;28;20115;-66
2022/07/26 09:03:37;;;;;;;4.35;1.35;;;30.20;56.10;;;;;;4196294;28;20511;-70
2022/07/26 09:05:40;;;;;;;4.07;1.70;;;30.30;55.80;;;;;;4193446;28;20078;-67
2022/07/26 09:07:41;;;;;;;7.25;2.40;;;30.50;55.70;;;;;;4196009;28;20437;-68
2022/07/26 09:09:59;;;;;;;6.97;1.90;;;30.40;55.60;;;;;;4195137;28;20098;-66
2022/07/26 09:12:18;;;;;;;2.85;1.60;;;30.40;55.00;;;;;;4194778;28;20048;-65
2022/07/26 09:14:19;;;;;;;3.40;1.95;;;30.50;55.20;;;;;;4194813;28;20044;-66
2022/07/26 09:16:20;;;;;;;6.30;1.60;;;30.60;55.50;;;;;;4196231;28;20036;-66
2022/07/26 09:18:26;;;;;;;2.38;1.60;;;30.70;55.30;;;;;;4195127;28;20047;-65
2022/07/26 09:20:29;;;;;;;2.35;1.45;;;30.80;54.80;;;;;;4195256;28;20125;-67
2022/07/26 09:22:31;;;;;;;6.30;2.25;;;30.80;54.80;;;;;;4195138;28;20066;-64
2022/07/26 09:24:45;;;;;;;3.88;2.10;;;31.00;55.00;;;;;;4195224;28;20036;-66
2022/07/26 09:26:57;;;;;;;2.80;1.52;;;31.10;54.80;;;;;;4194139;28;20070;-65
2022/07/26 09:29:10;;;;;;;7.35;1.50;;;30.80;53.80;;;;;;4195152;28;20025;-68
2022/07/26 09:31:11;;;;;;;4.85;1.40;;;30.50;53.80;;;;;;4194864;28;20029;-64
2022/07/26 09:33:12;;;;;;;3.53;1.90;;;30.40;54.10;;;;;;4194633;28;20408;-65
2022/07/26 09:35:20;;;;;;;5.30;1.80;;;30.40;54.20;;;;;;4194010;28;20037;-66
2022/07/26 09:37:42;;;;;;;4.70;1.98;;;30.40;54.30;;;;;;4194651;28;20082;-66
2022/07/26 09:39:58;;;;;;;4.85;1.58;;;30.50;54.40;;;;;;4194160;28;20105;-65
2022/07/26 09:42:06;;;;;;;7.28;3.30;;;30.60;53.30;;;;;;4195090;28;20098;-64
2022/07/26 09:44:23;;;;;;;6.43;1.63;;;30.60;53.90;;;;;;4195328;28;21138;-68
2022/07/26 09:46:26;;;;;;;5.18;1.70;;;30.60;53.30;;;;;;4195086;28;20020;-64
2022/07/26 09:48:28;;;;;;;10.93;4.35;;;30.90;54.00;;;;;;4195298;28;20029;-65
2022/07/26 09:50:32;;;;;;;9.80;1.85;;;31.20;53.90;;;;;;4194068;28;20048;-65
2022/07/26 09:52:33;;;;;;;7.55;1.55;;;31.30;53.40;;;;;;4195233;28;20083;-65
2022/07/26 09:54:34;;;;;;;7.05;2.10;;;31.20;53.20;;;;;;4194037;28;20079;-67
2022/07/26 09:56:42;;;;;;;7.38;1.65;;;31.20;53.40;;;;;;4195201;28;20016;-69
2022/07/26 09:58:43;;;;;;;3.60;1.60;;;30.90;53.40;;;;;;4194021;28;20048;-65
2022/07/26 10:00:45;;;;;;;1.63;1.52;;;30.70;53.60;;;;;;4195544;28;20149;-64
2022/07/26 10:02:46;;;;;;;5.28;1.70;;;30.60;53.50;;;;;;4194263;28;20542;-64
2022/07/26 10:04:47;;;;;;;8.23;1.60;;;30.50;53.70;;;;;;4195515;28;20114;-63
2022/07/26 10:06:49;;;;;;;8.00;2.00;;;30.60;53.70;;;;;;4193452;28;20041;-64
2022/07/26 10:08:50;;;;;;;6.75;1.67;;;30.60;53.70;;;;;;4195681;28;20140;-64
2022/07/26 10:11:04;;;;;;;5.32;1.75;;;30.70;53.60;;;;;;4193988;28;20056;-65
2022/07/26 10:13:07;;;;;;;5.07;1.95;;;30.90;53.60;;;;;;4195409;28;20110;-62
2022/07/26 10:15:37;;;;;;;5.80;1.85;;;31.20;53.70;;;;;;4194087;28;20125;-69
2022/07/26 10:17:39;;;;;;;;;;;31.50;53.80;;;;;;4195876;28;20029;-65
2022/07/26 10:22:23;;;;;;;1.63;1.25;;;31.80;53.40;;;;;;4255685;23;20104;-63
2022/07/26 10:24:25;;;;;;;2.25;1.40;;;31.80;52.20;;;;;;4129154;28;20382;-62
2022/07/26 10:26:32;;;;;;;3.28;1.33;;;31.90;53.10;;;;;;4130176;28;20474;-63
2022/07/26 10:28:35;;;;;;;6.43;1.38;;;31.90;52.10;;;;;;4128942;28;20035;-64
2022/07/26 10:30:36;;;;;;;2.58;1.20;;;31.80;52.30;;;;;;4129913;28;20085;-64
2022/07/26 10:32:38;;;;;;;2.67;1.27;;;31.60;52.20;;;;;;4128873;28;20562;-64
2022/07/26 10:34:40;;;;;;;2.92;1.70;;;31.30;52.30;;;;;;4129836;28;20061;-65
2022/07/26 10:36:41;;;;;;;3.17;1.10;;;31.10;52.40;;;;;;4129036;28;20030;-65